Time;durP1;ratioP1;P1;durP2;ratioP2;P2;SDS_P1;SDS_P2;PMS_P1;PMS_P2;Temp;Humidity;BMP_temperature;BMP_pressure;BME280_temperature;BME280_humidity;BME280_pressure;Samples;Min_cycle;Max_cycle;Signal;HPM_P1;HPM_P2
2022/08/24 00:00:08;;;;;;;4.03;2.50;;;30.10;99.90;;;;;;5019290;28;20642;-93
2022/08/24 00:02:40;;;;;;;4.45;2.08;;;30.10;99.90;;;;;;5017495;28;20571;-93
2022/08/24 00:05:15;;;;;;;4.07;2.42;;;30.00;99.90;;;;;;5019474;28;20266;-93
2022/08/24 00:07:46;;;;;;;3.35;2.33;;;30.00;99.90;;;;;;5019495;28;20213;-93
2022/08/24 00:10:19;;;;;;;2.78;2.25;;;30.00;99.90;;;;;;5020553;28;20217;-94
2022/08/24 00:12:51;;;;;;;4.80;2.20;;;29.90;99.90;;;;;;5020412;28;20239;-93
2022/08/24 00:15:21;;;;;;;2.35;2.15;;;29.90;99.90;;;;;;5031373;28;20900;-94
2022/08/24 00:17:54;;;;;;;2.63;2.22;;;29.90;99.90;;;;;;5031368;28;20237;-93
2022/08/24 00:20:30;;;;;;;3.67;2.10;;;29.80;99.90;;;;;;5018341;28;20206;-93
2022/08/24 00:23:02;;;;;;;2.42;2.22;;;29.70;99.90;;;;;;5017480;28;20198;-92
2022/08/24 00:25:33;;;;;;;2.40;2.20;;;29.90;99.90;;;;;;5009915;28;20265;-93
2022/08/24 00:28:05;;;;;;;2.80;2.40;;;30.10;99.90;;;;;;5000970;28;20214;-94
2022/08/24 00:30:37;;;;;;;2.10;2.00;;;30.00;99.90;;;;;;5001361;28;20288;-94
2022/08/24 00:33:11;;;;;;;3.53;2.20;;;29.90;99.90;;;;;;4999349;28;20721;-92
2022/08/24 00:35:45;;;;;;;3.22;2.42;;;29.70;99.90;;;;;;5000132;28;20234;-93
2022/08/24 00:38:16;;;;;;;2.22;2.03;;;29.60;99.90;;;;;;4999564;28;20318;-93
2022/08/24 00:40:50;;;;;;;2.28;2.08;;;29.30;99.90;;;;;;4998699;28;20222;-93
2022/08/24 00:43:24;;;;;;;3.63;2.30;;;28.90;99.90;;;;;;4999286;28;20714;-93
2022/08/24 00:46:10;;;;;;;2.70;2.20;;;28.60;99.90;;;;;;4998396;28;20282;-93
2022/08/24 00:48:44;;;;;;;2.87;2.07;;;28.50;99.90;;;;;;4999850;28;20233;-92
2022/08/24 00:51:21;;;;;;;3.30;2.50;;;28.60;99.90;;;;;;4997918;28;20201;-93
2022/08/24 00:53:56;;;;;;;2.60;2.23;;;28.50;99.90;;;;;;4998249;28;20202;-94
2022/08/24 00:56:31;;;;;;;3.93;2.07;;;28.20;99.90;;;;;;4998843;28;20206;-94
2022/08/24 00:59:06;;;;;;;2.40;2.10;;;27.80;99.90;;;;;;4998671;28;20230;-93
2022/08/24 01:01:38;;;;;;;5.40;1.87;;;27.60;99.90;;;;;;4998360;28;20906;-92
2022/08/24 01:04:14;;;;;;;2.50;2.30;;;27.60;99.90;;;;;;4998580;28;20214;-92
2022/08/24 01:06:49;;;;;;;2.80;2.30;;;27.70;99.90;;;;;;4999107;28;20218;-93
2022/08/24 01:09:22;;;;;;;3.07;2.50;;;28.00;99.90;;;;;;5003836;28;20698;-93
2022/08/24 01:11:55;;;;;;;2.40;2.20;;;28.40;99.90;;;;;;4998448;28;20225;-93
2022/08/24 01:14:28;;;;;;;2.30;2.10;;;28.70;99.90;;;;;;4997949;28;20237;-92
2022/08/24 01:19:51;;;;;;;2.77;2.27;;;28.70;99.90;;;;;;5010099;28;20794;-93
2022/08/24 01:22:38;;;;;;;2.20;2.00;;;28.80;99.90;;;;;;5014089;28;20229;-93
2022/08/24 01:25:12;;;;;;;2.50;2.30;;;28.90;99.90;;;;;;5021837;28;20205;-93
2022/08/24 01:27:44;;;;;;;2.83;2.20;;;28.80;99.90;;;;;;5036689;28;20216;-93
2022/08/24 01:30:21;;;;;;;2.30;1.83;;;28.60;99.90;;;;;;5036222;28;20233;-93
2022/08/24 01:33:15;;;;;;;4.77;2.27;;;28.10;99.90;;;;;;5035490;28;20204;-93
2022/08/24 01:35:46;;;;;;;3.43;2.20;;;27.50;99.90;;;;;;5035399;28;20218;-93
2022/08/24 01:38:18;;;;;;;2.53;2.33;;;27.20;99.90;;;;;;5036750;28;20225;-93
2022/08/24 01:41:03;;;;;;;2.50;2.30;;;27.00;99.90;;;;;;5029423;28;20728;-93
2022/08/24 01:43:35;;;;;;;3.20;2.40;;;26.80;99.90;;;;;;5020227;28;20213;-93
2022/08/24 01:46:06;;;;;;;8.10;2.60;;;26.50;99.90;;;;;;5026931;28;20213;-95
2022/08/24 01:48:39;;;;;;;2.20;2.10;;;26.40;99.90;;;;;;5026815;28;20781;-95
2022/08/24 01:51:11;;;;;;;4.53;2.37;;;26.30;99.90;;;;;;5028963;28;20193;-94
2022/08/24 01:53:43;;;;;;;2.97;2.40;;;26.30;99.90;;;;;;5028603;28;20213;-95
2022/08/24 01:56:20;;;;;;;3.80;2.60;;;26.10;99.90;;;;;;5024076;28;20237;-94
2022/08/24 01:58:51;;;;;;;4.50;2.27;;;26.00;99.90;;;;;;5024080;28;20662;-95
2022/08/24 02:01:24;;;;;;;3.53;2.40;;;25.90;99.90;;;;;;5023282;28;20256;-95
2022/08/24 02:03:56;;;;;;;2.33;2.10;;;25.70;99.90;;;;;;5024285;28;20256;-95
2022/08/24 02:06:28;;;;;;;2.33;2.00;;;25.60;99.90;;;;;;5023879;28;20294;-95
2022/08/24 02:08:59;;;;;;;2.40;2.07;;;25.50;99.90;;;;;;5023767;28;20210;-95
2022/08/24 02:11:34;;;;;;;4.30;2.50;;;25.50;99.90;;;;;;5021697;28;20237;-95
2022/08/24 02:14:06;;;;;;;3.23;2.50;;;25.40;99.90;;;;;;5021083;28;20205;-94
2022/08/24 02:16:37;;;;;;;4.57;2.60;;;25.30;99.90;;;;;;5022340;28;20213;-94
2022/08/24 02:19:10;;;;;;;4.93;3.03;;;25.20;99.90;;;;;;5022145;28;20221;-94
2022/08/24 02:21:42;;;;;;;3.40;2.67;;;25.10;99.90;;;;;;5020459;28;20206;-94
2022/08/24 02:24:13;;;;;;;2.50;2.30;;;25.10;99.90;;;;;;5022142;28;20232;-94
2022/08/24 02:26:47;;;;;;;3.00;2.80;;;25.00;99.90;;;;;;5002773;28;20225;-94
2022/08/24 02:29:18;;;;;;;2.77;2.57;;;25.00;99.90;;;;;;5004333;28;20284;-93
2022/08/24 02:31:50;;;;;;;4.03;2.43;;;24.90;99.90;;;;;;5001909;28;20253;-93
2022/08/24 02:34:22;;;;;;;3.30;2.80;;;24.90;99.90;;;;;;5002496;28;20210;-94
2022/08/24 02:36:54;;;;;;;4.00;2.60;;;24.80;99.90;;;;;;5001592;28;20619;-92
2022/08/24 02:39:26;;;;;;;3.53;2.40;;;24.70;99.90;;;;;;5001719;28;20583;-93
2022/08/24 02:42:01;;;;;;;4.50;2.70;;;24.50;99.90;;;;;;5002226;28;20273;-92
2022/08/24 02:44:33;;;;;;;2.43;2.23;;;24.40;99.90;;;;;;5002878;28;20214;-92
2022/08/24 02:47:05;;;;;;;3.77;2.80;;;24.40;99.90;;;;;;5002562;28;20210;-92
2022/08/24 02:49:37;;;;;;;5.63;2.70;;;24.30;99.90;;;;;;5006171;28;20257;-92
2022/08/24 02:52:09;;;;;;;4.87;2.77;;;24.10;99.90;;;;;;5019083;28;20236;-93
2022/08/24 02:54:40;;;;;;;4.00;2.83;;;24.10;99.90;;;;;;5021516;28;20305;-93
2022/08/24 02:57:14;;;;;;;2.77;2.57;;;24.00;99.90;;;;;;5020840;28;20213;-93
2022/08/24 02:59:45;;;;;;;3.13;2.70;;;23.90;99.90;;;;;;5020674;28;20264;-93
2022/08/24 03:02:17;;;;;;;2.93;2.63;;;23.80;99.90;;;;;;5020743;28;20229;-92
2022/08/24 03:04:48;;;;;;;3.20;2.90;;;23.70;99.90;;;;;;5021067;28;20643;-93
2022/08/24 03:07:20;;;;;;;4.37;2.80;;;23.60;99.90;;;;;;5021215;28;20270;-93
2022/08/24 03:09:52;;;;;;;8.27;3.07;;;23.50;99.90;;;;;;5021133;28;20230;-92
2022/08/24 03:12:25;;;;;;;5.63;3.13;;;23.40;99.90;;;;;;5020984;28;20210;-92
2022/08/24 03:14:57;;;;;;;3.47;2.93;;;23.30;99.90;;;;;;5021120;28;20221;-92
2022/08/24 03:17:29;;;;;;;3.30;3.00;;;23.20;99.90;;;;;;5020960;28;20264;-92
2022/08/24 03:20:01;;;;;;;5.83;3.20;;;23.20;99.90;;;;;;5020106;28;20218;-93
2022/08/24 03:22:33;;;;;;;3.57;3.10;;;23.10;99.90;;;;;;5020515;28;20279;-93
2022/08/24 03:25:06;;;;;;;3.93;3.03;;;23.00;99.90;;;;;;5021155;28;20287;-92
2022/08/24 03:27:40;;;;;;;4.97;3.07;;;22.90;99.90;;;;;;5021162;28;20639;-92
2022/08/24 03:30:14;;;;;;;3.30;3.00;;;22.80;99.90;;;;;;5020433;28;20276;-93
2022/08/24 03:32:45;;;;;;;4.70;3.10;;;22.70;99.90;;;;;;5019501;28;20210;-92
2022/08/24 03:35:20;;;;;;;3.50;2.90;;;22.70;99.90;;;;;;5021874;28;20217;-92
2022/08/24 03:37:56;;;;;;;3.90;2.57;;;22.60;99.90;;;;;;5024329;28;20206;-92
2022/08/24 03:40:32;;;;;;;5.63;2.87;;;22.60;99.90;;;;;;5031987;28;20202;-93
2022/08/24 03:46:04;;;;;;;3.60;2.73;;;22.50;99.90;;;;;;5034273;28;20209;-93
2022/08/24 03:51:23;;;;;;;3.23;2.60;;;22.40;99.90;;;;;;5010861;28;20230;-95
2022/08/24 03:56:42;;;;;;;3.77;3.03;;;22.30;99.90;;;;;;5002025;28;20237;-94
2022/08/24 04:05:17;;;;;;;8.73;2.97;;;22.10;99.90;;;;;;5059775;22;20264;-94
2022/08/24 04:08:01;;;;;;;6.27;3.03;;;22.10;99.90;;;;;;5025492;28;20210;-93
2022/08/24 04:10:35;;;;;;;4.00;3.10;;;22.00;99.90;;;;;;5028024;28;20256;-93
2022/08/24 04:13:19;;;;;;;3.90;3.10;;;22.00;99.90;;;;;;5028293;28;20257;-94
2022/08/24 04:15:52;;;;;;;3.27;2.97;;;21.90;99.90;;;;;;5025350;28;20217;-93
2022/08/24 04:18:24;;;;;;;3.10;2.80;;;22.00;99.90;;;;;;5029054;28;20213;-93
2022/08/24 04:21:00;;;;;;;3.97;3.37;;;22.00;99.90;;;;;;5023277;28;20205;-93
2022/08/24 04:23:34;;;;;;;3.90;2.60;;;22.00;99.90;;;;;;5028948;28;20210;-93
2022/08/24 04:26:18;;;;;;;6.63;3.13;;;21.90;99.90;;;;;;5029995;28;20288;-93
2022/08/24 04:29:12;;;;;;;3.53;2.80;;;21.80;99.90;;;;;;5024385;28;20229;-93
2022/08/24 04:31:44;;;;;;;4.47;3.40;;;21.70;99.90;;;;;;5018814;28;20237;-93
2022/08/24 04:34:20;;;;;;;4.40;3.10;;;21.70;99.90;;;;;;5026896;28;20301;-93
2022/08/24 04:37:16;;;;;;;4.60;3.10;;;21.60;99.90;;;;;;5030648;28;20225;-95
2022/08/24 04:40:03;;;;;;;4.77;3.33;;;21.50;99.90;;;;;;5032461;28;20198;-94
2022/08/24 04:42:34;;;;;;;4.00;3.03;;;21.40;99.90;;;;;;5025977;28;20283;-93
2022/08/24 04:45:07;;;;;;;3.10;2.87;;;21.30;99.90;;;;;;5031063;28;20210;-93
2022/08/24 04:47:38;;;;;;;4.40;2.90;;;21.30;99.90;;;;;;5028110;28;20214;-93
2022/08/24 04:53:15;;;;;;;3.17;2.87;;;21.20;99.90;;;;;;5010596;28;20209;-93
2022/08/24 04:55:55;;;;;;;3.67;2.73;;;21.10;99.90;;;;;;5012084;28;20213;-95
2022/08/24 04:58:35;;;;;;;6.67;2.73;;;21.00;99.90;;;;;;5010394;28;20229;-93
2022/08/24 05:01:14;;;;;;;4.00;2.87;;;21.00;99.90;;;;;;5007213;28;20211;-93
2022/08/24 05:03:47;;;;;;;3.63;2.80;;;20.90;99.90;;;;;;4999467;28;20647;-93
2022/08/24 05:06:20;;;;;;;3.10;2.80;;;20.80;99.90;;;;;;4998570;28;20644;-93
2022/08/24 05:08:57;;;;;;;3.80;2.80;;;20.80;99.90;;;;;;5012129;28;20249;-93
2022/08/24 05:11:28;;;;;;;3.60;2.73;;;20.70;99.90;;;;;;5011944;28;20241;-94
2022/08/24 05:14:09;;;;;;;3.83;2.70;;;20.70;99.90;;;;;;5016735;28;20218;-94
2022/08/24 05:16:44;;;;;;;2.90;1.93;;;20.70;99.90;;;;;;5018235;28;20186;-94
2022/08/24 05:19:23;;;;;;;2.20;1.80;;;20.60;99.90;;;;;;5016800;28;20221;-94
2022/08/24 05:27:12;;;;;;;4.70;2.00;;;20.50;99.90;;;;;;5022155;28;20228;-93
2022/08/24 05:29:43;;;;;;;2.63;1.90;;;20.40;99.90;;;;;;5019871;28;20205;-93
2022/08/24 05:32:17;;;;;;;2.00;1.80;;;20.40;99.90;;;;;;5017868;28;20237;-93
2022/08/24 05:34:50;;;;;;;2.03;1.83;;;20.40;99.90;;;;;;5018698;28;20229;-94
2022/08/24 05:37:22;;;;;;;3.20;2.20;;;20.30;99.90;;;;;;5023425;28;20665;-94
2022/08/24 05:39:58;;;;;;;3.63;2.27;;;20.40;99.90;;;;;;5022530;28;20181;-92
2022/08/24 05:42:47;;;;;;;5.90;2.17;;;20.30;99.90;;;;;;5028605;28;20216;-93
2022/08/24 05:45:19;;;;;;;4.33;1.87;;;20.30;99.90;;;;;;5024952;28;20219;-94
2022/08/24 05:50:29;;;;;;;2.83;2.20;;;20.20;99.90;;;;;;4995232;28;20234;-92
2022/08/24 05:53:00;;;;;;;3.50;2.13;;;20.10;99.90;;;;;;4996349;28;20203;-93
2022/08/24 05:55:32;;;;;;;6.40;2.10;;;20.10;99.90;;;;;;4997122;28;20295;-93
2022/08/24 05:58:06;;;;;;;2.77;1.70;;;20.10;99.90;;;;;;4996578;28;20218;-94
2022/08/24 06:00:40;;;;;;;2.10;1.80;;;20.00;99.90;;;;;;5111016;23;20787;-93
2022/08/24 06:05:57;;;;;;;2.60;1.90;;;19.90;99.90;;;;;;5016669;28;20198;-93
2022/08/24 06:08:28;;;;;;;2.00;1.60;;;19.90;99.90;;;;;;5016971;28;20202;-94
2022/08/24 06:11:00;;;;;;;2.57;1.90;;;19.90;99.90;;;;;;5016562;28;20194;-93
2022/08/24 06:13:38;;;;;;;2.70;1.80;;;19.80;99.90;;;;;;5385975;23;20278;-94
2022/08/24 06:16:12;;;;;;;3.90;2.40;;;19.80;99.90;;;;;;5017352;28;20198;-94
2022/08/24 06:18:52;;;;;;;4.23;2.37;;;19.80;99.90;;;;;;5017176;28;20214;-94
2022/08/24 06:21:26;;;;;;;3.00;2.40;;;19.80;99.90;;;;;;5002289;28;20214;-94
2022/08/24 06:24:00;;;;;;;2.87;2.00;;;19.80;99.90;;;;;;4999107;28;20207;-94
2022/08/24 06:29:22;;;;;;;4.37;2.20;;;19.70;99.90;;;;;;5001071;28;20221;-93
2022/08/24 06:31:54;;;;;;;4.40;2.23;;;19.70;99.90;;;;;;5014543;28;20245;-93
2022/08/24 06:34:27;;;;;;;4.23;2.23;;;19.70;99.90;;;;;;4982720;28;20225;-93
2022/08/24 06:36:58;;;;;;;3.73;2.33;;;19.70;99.90;;;;;;4982635;28;20215;-95
2022/08/24 06:39:29;;;;;;;2.97;2.30;;;19.60;99.90;;;;;;4982250;28;20241;-93
2022/08/24 06:42:01;;;;;;;2.37;2.17;;;19.60;99.90;;;;;;4982290;28;20218;-93
2022/08/24 06:44:35;;;;;;;3.20;2.37;;;19.60;99.90;;;;;;4987088;28;20358;-95
2022/08/24 06:47:07;;;;;;;2.77;2.37;;;19.50;99.90;;;;;;4985871;28;20274;-93
2022/08/24 06:49:38;;;;;;;3.20;2.47;;;19.60;99.90;;;;;;4985826;28;20214;-93
2022/08/24 06:52:11;;;;;;;3.63;2.30;;;19.50;99.90;;;;;;4984707;28;20231;-93
2022/08/24 06:54:43;;;;;;;3.83;2.27;;;19.50;99.90;;;;;;4986939;28;20235;-93
2022/08/24 06:57:14;;;;;;;5.80;2.13;;;19.50;99.90;;;;;;4985700;28;20194;-93
2022/08/24 06:59:48;;;;;;;2.27;2.07;;;19.40;99.90;;;;;;4964584;28;20208;-94
2022/08/24 07:02:20;;;;;;;3.20;2.20;;;19.40;99.90;;;;;;4969615;28;20267;-93
2022/08/24 07:04:51;;;;;;;5.03;2.20;;;19.30;99.90;;;;;;5041432;23;20245;-93
2022/08/24 07:07:22;;;;;;;3.33;1.90;;;19.30;99.90;;;;;;5003332;28;20262;-93
2022/08/24 07:09:53;;;;;;;2.20;1.90;;;19.20;99.90;;;;;;5002336;28;20284;-92
2022/08/24 07:12:25;;;;;;;2.53;1.90;;;19.10;99.90;;;;;;5002696;28;20226;-92
2022/08/24 07:14:59;;;;;;;3.43;2.00;;;19.10;99.90;;;;;;5000859;28;20226;-93
2022/08/24 07:17:31;;;;;;;2.20;2.00;;;19.10;99.90;;;;;;5002480;28;20241;-93
2022/08/24 07:20:03;;;;;;;2.37;2.00;;;19.10;99.90;;;;;;5003178;28;20210;-93
2022/08/24 07:22:34;;;;;;;3.40;2.27;;;19.10;99.90;;;;;;5000654;28;20222;-92
2022/08/24 07:25:06;;;;;;;2.80;2.13;;;19.10;99.90;;;;;;5000696;28;20547;-93
2022/08/24 07:27:38;;;;;;;3.73;2.20;;;19.00;99.90;;;;;;5000984;28;20218;-92
2022/08/24 07:30:13;;;;;;;3.10;2.20;;;19.00;99.90;;;;;;5000487;28;20256;-93
2022/08/24 07:32:57;;;;;;;2.90;2.00;;;18.90;99.90;;;;;;4999276;28;20234;-92
2022/08/24 07:35:31;;;;;;;2.43;2.23;;;18.90;99.90;;;;;;5000202;28;20219;-93
2022/08/24 07:38:03;;;;;;;2.97;2.00;;;19.00;99.90;;;;;;5000298;28;20207;-92
2022/08/24 07:40:35;;;;;;;3.67;1.87;;;18.90;99.90;;;;;;4999608;28;20237;-92
2022/08/24 07:43:27;;;;;;;3.10;1.90;;;18.90;99.90;;;;;;4999247;28;20297;-93
2022/08/24 07:46:06;;;;;;;2.50;1.93;;;18.80;99.90;;;;;;4999144;28;20277;-93
2022/08/24 07:48:38;;;;;;;2.40;1.93;;;18.80;99.90;;;;;;5000622;28;20214;-92
2022/08/24 07:51:10;;;;;;;4.63;1.73;;;18.70;99.90;;;;;;4999792;28;20281;-92
2022/08/24 07:53:42;;;;;;;2.70;1.83;;;18.70;99.90;;;;;;5002347;28;20234;-94
2022/08/24 07:56:22;;;;;;;2.03;1.83;;;18.70;99.90;;;;;;4999649;28;20214;-93
2022/08/24 07:58:54;;;;;;;2.13;1.70;;;18.70;99.90;;;;;;4993357;28;20630;-93
2022/08/24 08:01:28;;;;;;;2.10;1.60;;;18.70;99.90;;;;;;4978381;28;20215;-92
2022/08/24 08:03:59;;;;;;;2.23;1.87;;;18.70;99.90;;;;;;4979577;28;20238;-93
2022/08/24 08:06:32;;;;;;;3.97;2.10;;;18.80;99.90;;;;;;4979951;28;20214;-93
2022/08/24 08:09:04;;;;;;;3.23;1.70;;;18.70;99.90;;;;;;4979898;28;20203;-92
2022/08/24 08:11:38;;;;;;;2.63;1.67;;;18.70;99.90;;;;;;4979510;28;20210;-92
2022/08/24 08:14:10;;;;;;;2.50;1.77;;;18.70;99.90;;;;;;4980330;28;20246;-92
2022/08/24 08:16:44;;;;;;;3.60;1.70;;;18.70;99.90;;;;;;4978588;28;20225;-93
2022/08/24 08:19:15;;;;;;;2.33;1.70;;;18.60;99.90;;;;;;4985790;28;20285;-93
2022/08/24 08:24:49;;;;;;;1.73;1.63;;;18.60;99.90;;;;;;4940110;29;20216;-93
2022/08/24 08:27:20;;;;;;;2.23;1.50;;;18.60;99.90;;;;;;4973392;28;20262;-93
2022/08/24 08:29:51;;;;;;;2.23;1.70;;;18.60;99.90;;;;;;4979964;28;20249;-93
2022/08/24 08:32:25;;;;;;;2.80;1.63;;;18.50;99.90;;;;;;4978112;28;20289;-93
2022/08/24 08:34:56;;;;;;;3.53;1.87;;;18.50;99.90;;;;;;4980033;28;20211;-93
2022/08/24 08:37:31;;;;;;;2.33;1.70;;;18.40;99.90;;;;;;4978564;28;20664;-93
2022/08/24 08:40:03;;;;;;;3.13;1.57;;;18.40;99.90;;;;;;4981489;28;20207;-93
2022/08/24 08:42:49;;;;;;;2.97;1.90;;;18.30;99.90;;;;;;4978863;28;20616;-93
2022/08/24 08:45:29;;;;;;;2.33;1.67;;;18.30;99.90;;;;;;4982335;28;20219;-92
2022/08/24 08:48:46;;;;;;;1.60;1.50;;;18.20;99.90;;;;;;4982898;28;20206;-93
2022/08/24 08:51:56;;;;;;;3.93;1.80;;;18.20;99.90;;;;;;4980928;28;20224;-94
2022/08/24 08:54:52;;;;;;;3.80;1.50;;;18.10;99.90;;;;;;4951064;28;20733;-92
2022/08/24 08:57:40;;;;;;;1.70;1.60;;;18.10;99.90;;;;;;4980326;28;20672;-93
2022/08/24 09:00:17;;;;;;;2.30;1.63;;;18.10;99.90;;;;;;4981255;28;20195;-93
2022/08/24 09:03:26;;;;;;;2.03;1.50;;;18.10;99.90;;;;;;4983105;28;20290;-93
2022/08/24 09:06:35;;;;;;;5.47;1.80;;;18.10;99.90;;;;;;4979271;28;20203;-93
2022/08/24 09:09:48;;;;;;;1.73;1.63;;;18.00;99.90;;;;;;4978796;28;20226;-93
2022/08/24 09:12:32;;;;;;;2.70;2.00;;;18.00;99.90;;;;;;4974824;28;20210;-93
2022/08/24 09:15:15;;;;;;;2.20;1.63;;;17.90;99.90;;;;;;4978860;28;20222;-93
2022/08/24 09:18:06;;;;;;;2.30;1.43;;;18.00;99.90;;;;;;4979004;28;20218;-93
2022/08/24 09:21:03;;;;;;;3.10;1.90;;;18.00;99.90;;;;;;4979486;28;20211;-94
2022/08/24 09:23:46;;;;;;;2.67;1.50;;;17.90;99.90;;;;;;4977776;28;20230;-93
2022/08/24 09:26:25;;;;;;;3.33;1.73;;;17.90;99.90;;;;;;4983736;28;20210;-92
2022/08/24 09:29:11;;;;;;;3.37;1.73;;;17.90;99.90;;;;;;4986466;28;20211;-93
2022/08/24 09:31:59;;;;;;;2.83;1.50;;;17.90;99.90;;;;;;4986179;28;20227;-92
2022/08/24 09:34:49;;;;;;;1.50;1.40;;;17.90;99.90;;;;;;4986423;28;20262;-93
2022/08/24 09:37:52;;;;;;;1.93;1.60;;;17.90;99.90;;;;;;4980648;28;20244;-92
2022/08/24 09:40:44;;;;;;;1.60;1.50;;;17.80;99.90;;;;;;4978699;28;20261;-93
2022/08/24 09:43:51;;;;;;;3.63;1.87;;;17.80;99.90;;;;;;4981533;28;20207;-92
2022/08/24 09:46:59;;;;;;;1.93;1.80;;;17.80;99.90;;;;;;4962132;28;20202;-93
2022/08/24 09:50:05;;;;;;;2.67;1.63;;;17.70;99.90;;;;;;4976711;28;20215;-93
2022/08/24 09:53:14;;;;;;;2.00;1.60;;;17.70;99.90;;;;;;4976834;28;20281;-93
2022/08/24 09:56:06;;;;;;;1.67;1.57;;;17.70;99.90;;;;;;4977991;28;20281;-93
2022/08/24 09:58:53;;;;;;;2.87;1.80;;;17.60;99.90;;;;;;4983167;28;20242;-93
2022/08/24 10:01:36;;;;;;;2.40;1.80;;;17.60;99.90;;;;;;4981256;28;20238;-95
2022/08/24 10:04:22;;;;;;;2.17;1.50;;;17.60;99.90;;;;;;4980191;28;20241;-93
2022/08/24 10:07:03;;;;;;;3.00;1.70;;;17.60;99.90;;;;;;4984667;28;20226;-94
2022/08/24 10:09:59;;;;;;;1.90;1.80;;;17.60;99.90;;;;;;4984188;28;20258;-94
2022/08/24 10:12:45;;;;;;;2.00;1.77;;;17.60;99.90;;;;;;4986412;28;20210;-94
2022/08/24 10:15:27;;;;;;;2.10;1.60;;;17.60;99.90;;;;;;4981457;28;20257;-94
2022/08/24 10:18:23;;;;;;;2.07;1.83;;;17.60;99.90;;;;;;4984249;28;20218;-94
2022/08/24 10:21:14;;;;;;;4.40;2.13;;;17.60;99.90;;;;;;4986328;28;20207;-94
2022/08/24 10:24:00;;;;;;;3.13;1.60;;;17.60;99.90;;;;;;4986717;28;20289;-94
2022/08/24 10:26:41;;;;;;;1.67;1.57;;;17.70;99.90;;;;;;4984428;28;20258;-94
2022/08/24 10:29:31;;;;;;;2.13;1.87;;;17.70;99.90;;;;;;4982517;28;20203;-94
2022/08/24 10:32:15;;;;;;;3.27;1.90;;;17.60;99.90;;;;;;4984680;28;20234;-94
2022/08/24 10:35:03;;;;;;;1.97;1.50;;;17.60;99.90;;;;;;4986339;28;20234;-94
2022/08/24 10:39:39;;;;;;;2.03;1.83;;;17.60;99.90;;;;;;4997662;28;20198;-94
2022/08/24 10:40:58;;;;;;;2.30;1.80;;;17.50;99.90;;;;;;5000497;28;20191;-92
2022/08/24 10:44:05;;;;;;;2.27;1.87;;;17.50;99.90;;;;;;5000108;28;20225;-93
2022/08/24 10:46:50;;;;;;;2.07;1.70;;;17.60;99.90;;;;;;4981336;28;20195;-94
2022/08/24 10:50:15;;;;;;;2.23;1.60;;;17.50;99.90;;;;;;4967073;28;20210;-94
2022/08/24 10:53:13;;;;;;;2.90;1.70;;;17.50;99.90;;;;;;4961802;28;20234;-94
2022/08/24 10:55:46;;;;;;;1.53;1.43;;;17.50;99.90;;;;;;4961787;28;20207;-94
2022/08/24 10:58:59;;;;;;;2.23;1.70;;;17.40;99.90;;;;;;4960545;29;20215;-93
2022/08/24 11:01:33;;;;;;;1.90;1.57;;;17.30;99.90;;;;;;4960802;28;20255;-94
2022/08/24 11:04:13;;;;;;;1.83;1.73;;;17.30;99.90;;;;;;4975624;28;20219;-93
2022/08/24 11:07:06;;;;;;;2.50;1.60;;;17.30;99.90;;;;;;4983944;28;20211;-94
2022/08/24 11:09:52;;;;;;;1.90;1.70;;;17.20;99.90;;;;;;4982852;28;20219;-94
2022/08/24 11:12:30;;;;;;;3.00;1.60;;;17.20;99.90;;;;;;4981935;28;20710;-93
2022/08/24 11:15:03;;;;;;;2.27;1.50;;;17.10;99.90;;;;;;4984049;28;20246;-94
2022/08/24 11:17:35;;;;;;;2.57;2.00;;;17.10;99.90;;;;;;4979828;28;20585;-94
2022/08/24 11:20:27;;;;;;;2.13;1.50;;;17.10;99.90;;;;;;4979874;28;20227;-94
2022/08/24 11:23:06;;;;;;;2.00;1.70;;;17.00;99.90;;;;;;4982363;28;20211;-94
2022/08/24 11:25:40;;;;;;;2.63;1.87;;;17.00;99.90;;;;;;4980473;28;20206;-94
2022/08/24 11:28:26;;;;;;;2.90;1.70;;;17.00;99.90;;;;;;4978974;28;20266;-93
2022/08/24 11:30:58;;;;;;;3.90;2.10;;;17.00;99.90;;;;;;4979795;28;20703;-93
2022/08/24 11:33:33;;;;;;;1.57;1.47;;;17.00;99.90;;;;;;4979326;28;20223;-94
2022/08/24 11:36:15;;;;;;;2.00;1.50;;;17.00;99.90;;;;;;4980218;28;20207;-94
2022/08/24 11:39:12;;;;;;;1.83;1.60;;;17.00;99.90;;;;;;4979753;28;20214;-94
2022/08/24 11:41:54;;;;;;;4.77;1.93;;;17.00;99.90;;;;;;4981086;28;20206;-94
2022/08/24 11:44:43;;;;;;;1.77;1.50;;;17.00;99.90;;;;;;4979552;28;20211;-94
2022/08/24 11:47:46;;;;;;;2.10;1.77;;;16.90;99.90;;;;;;4980034;28;20211;-94
2022/08/24 11:50:28;;;;;;;2.20;1.73;;;16.90;99.90;;;;;;4979862;28;20302;-93
2022/08/24 11:53:13;;;;;;;1.90;1.80;;;16.90;99.90;;;;;;4979003;28;20296;-94
2022/08/24 11:55:58;;;;;;;2.10;1.77;;;16.90;99.90;;;;;;4980442;28;20230;-93
2022/08/24 11:58:42;;;;;;;2.37;1.80;;;16.80;99.90;;;;;;4981394;28;20221;-94
2022/08/24 12:01:22;;;;;;;2.30;1.67;;;16.80;99.90;;;;;;4980802;28;20242;-93
2022/08/24 12:04:11;;;;;;;1.93;1.77;;;16.70;99.90;;;;;;4982099;28;20218;-93
2022/08/24 12:06:55;;;;;;;2.73;1.70;;;16.70;99.90;;;;;;4979717;28;20203;-94
2022/08/24 12:09:41;;;;;;;2.00;1.87;;;16.70;99.90;;;;;;4981263;28;20206;-94
2022/08/24 12:12:20;;;;;;;1.70;1.53;;;16.60;99.90;;;;;;4978425;28;20219;-94
2022/08/24 12:15:00;;;;;;;3.13;1.93;;;16.60;99.90;;;;;;4978630;28;20297;-94
2022/08/24 12:17:37;;;;;;;1.83;1.73;;;16.60;99.90;;;;;;4979530;28;20211;-94
2022/08/24 12:20:22;;;;;;;3.67;2.00;;;16.50;99.90;;;;;;4979098;28;20225;-94
2022/08/24 12:22:56;;;;;;;2.83;2.07;;;16.50;99.90;;;;;;4978182;28;20214;-94
2022/08/24 12:28:26;;;;;;;2.30;2.00;;;16.40;99.90;;;;;;4977624;28;20254;-92
2022/08/24 12:31:01;;;;;;;2.23;2.00;;;16.30;99.90;;;;;;4978625;28;20743;-93
2022/08/24 12:33:37;;;;;;;1.87;1.67;;;16.30;99.90;;;;;;4978417;28;20233;-94
2022/08/24 12:36:18;;;;;;;2.33;2.00;;;16.30;99.90;;;;;;4978639;28;20234;-94
2022/08/24 12:38:56;;;;;;;3.07;2.00;;;16.30;99.90;;;;;;4980865;28;20587;-94
2022/08/24 12:41:34;;;;;;;3.93;2.33;;;16.20;99.90;;;;;;4980423;28;20206;-93
2022/08/24 12:44:13;;;;;;;2.73;2.20;;;16.20;99.90;;;;;;4979726;28;20277;-94
2022/08/24 12:46:44;;;;;;;2.53;1.87;;;16.20;99.90;;;;;;4981602;28;20198;-94
2022/08/24 12:49:24;;;;;;;3.03;2.00;;;16.20;99.90;;;;;;4982469;28;20202;-94
2022/08/24 12:52:16;;;;;;;2.07;1.90;;;16.10;99.90;;;;;;4980298;28;20215;-94
2022/08/24 12:55:15;;;;;;;2.73;2.00;;;16.10;99.90;;;;;;4978747;28;20341;-93
2022/08/24 12:57:54;;;;;;;4.40;2.03;;;16.00;99.90;;;;;;4978325;28;20714;-94
2022/08/24 13:00:32;;;;;;;2.00;1.90;;;16.10;99.90;;;;;;4981977;28;20198;-93
2022/08/24 13:03:08;;;;;;;2.90;1.90;;;16.00;99.90;;;;;;4981994;28;20214;-94
2022/08/24 13:05:43;;;;;;;2.90;1.77;;;16.00;99.90;;;;;;4980713;28;20257;-94
2022/08/24 13:08:22;;;;;;;2.00;1.90;;;16.00;99.90;;;;;;4980739;28;20203;-93
2022/08/24 13:11:01;;;;;;;2.30;2.10;;;16.00;99.90;;;;;;4978883;28;20207;-93
2022/08/24 13:13:47;;;;;;;2.47;1.90;;;16.00;99.90;;;;;;4980850;28;20623;-94
2022/08/24 13:16:50;;;;;;;3.00;2.20;;;16.00;99.90;;;;;;4980877;28;20235;-94
2022/08/24 13:19:37;;;;;;;2.10;1.90;;;15.90;99.90;;;;;;4980505;28;20258;-94
2022/08/24 13:22:47;;;;;;;2.20;2.00;;;16.00;99.90;;;;;;4977930;28;20686;-93
2022/08/24 13:25:54;;;;;;;3.67;2.20;;;15.90;99.90;;;;;;4979675;28;20211;-94
2022/08/24 13:28:48;;;;;;;3.00;2.10;;;15.90;99.90;;;;;;4979837;28;20357;-94
2022/08/24 13:31:36;;;;;;;1.70;1.60;;;15.90;99.90;;;;;;4977214;28;20318;-93
2022/08/24 13:34:41;;;;;;;3.10;1.97;;;15.90;99.90;;;;;;4978168;28;20238;-94
2022/08/24 13:37:16;;;;;;;1.90;1.70;;;15.90;99.90;;;;;;4977700;28;20265;-93
2022/08/24 13:40:08;;;;;;;3.77;2.13;;;15.90;99.90;;;;;;4978915;28;20221;-94
2022/08/24 13:43:07;;;;;;;5.17;2.30;;;15.90;99.90;;;;;;4982412;28;20214;-93
2022/08/24 13:45:46;;;;;;;3.33;2.23;;;15.90;99.90;;;;;;4982565;28;20281;-93
2022/08/24 13:48:29;;;;;;;4.17;1.77;;;15.90;99.90;;;;;;4983807;28;20210;-94
2022/08/24 13:51:20;;;;;;;3.97;2.03;;;15.90;99.90;;;;;;4982786;28;20207;-94
2022/08/24 13:54:23;;;;;;;3.70;2.20;;;15.90;99.90;;;;;;4988930;28;20210;-93
2022/08/24 13:57:17;;;;;;;4.53;2.10;;;16.00;99.90;;;;;;4986943;28;20777;-94
2022/08/24 14:00:10;;;;;;;2.20;2.00;;;16.00;99.90;;;;;;4980879;28;20568;-94
2022/08/24 14:02:58;;;;;;;2.70;2.23;;;16.00;99.90;;;;;;4979931;28;20602;-96
2022/08/24 14:05:38;;;;;;;6.50;2.07;;;16.00;99.90;;;;;;4981730;28;20203;-94
2022/08/24 14:08:30;;;;;;;4.77;2.20;;;16.00;99.90;;;;;;4981495;28;20247;-94
2022/08/24 14:11:10;;;;;;;2.37;1.87;;;16.00;99.90;;;;;;4980935;28;20214;-94
2022/08/24 14:20:00;;;;;;;2.43;2.20;;;16.10;99.90;;;;;;4982166;28;20211;-94
2022/08/24 14:22:38;;;;;;;4.67;2.30;;;16.10;99.90;;;;;;4983988;28;20215;-94
2022/08/24 14:25:21;;;;;;;2.10;1.90;;;16.10;99.90;;;;;;4988709;28;20214;-94
2022/08/24 14:34:58;;;;;;;5.80;2.40;;;16.20;99.90;;;;;;4981076;28;20211;-94
2022/08/24 14:37:41;;;;;;;5.33;2.27;;;16.20;99.90;;;;;;4981422;28;20226;-94
2022/08/24 14:43:37;;;;;;;4.00;2.20;;;16.20;99.90;;;;;;4984716;28;20225;-93
2022/08/24 14:46:22;;;;;;;4.43;2.10;;;16.30;99.90;;;;;;4993339;28;20262;-94